GCFV/FUE METAR and TAF weather

Enter ICAO airport designator
Station Type Date Time Source
GCFV METAR 2018/04/26 15:00 UTC NOAA

GCFV 261500Z 01019KT 9999 FEW028 22/14 Q1017


Station Type Date Time Source
GCFV Decoded METAR 2018/04/26 15:00 UTC NOAA

Fuerteventura / Aeropuerto, Spain (GCFV) 28-27N 013-52W 30M
Apr 26, 2018 - 11:00 AM EDT / 2018.04.26 1500 UTC
Wind: from the N (010 degrees) at 22 MPH (19 KT):0
Visibility: greater than 7 mile(s):0
Sky conditions: mostly clear
Temperature: 71 F (22 C)
Dew Point: 57 F (14 C)
Relative Humidity: 60%
Pressure (altimeter): 30.03 in. Hg (1017 hPa)
ob: GCFV 261500Z 01019KT 9999 FEW028 22/14 Q1017
cycle: 15

Station Type Date Time Source
GCFV TAF 2018/04/26 15:27 UTC NOAA

TAF TAF GCFV 261400Z 2615/2715 36018KT 9999 SCT030 TX23/2714Z TN17/2705Z
BECMG 2708/2711 06013KT


Example: see airport list